sensor_id;sensor_type;location;lat;lon;timestamp;P1;durP1;ratioP1;P2;durP2;ratioP2
17886;SDS011;9069;52.044;7.472;2022-08-01T00:00:01;6.78;;;4.53;;
17886;SDS011;9069;52.044;7.472;2022-08-01T00:02:30;5.88;;;3.90;;
17886;SDS011;9069;52.044;7.472;2022-08-01T00:04:57;6.00;;;3.78;;
17886;SDS011;9069;52.044;7.472;2022-08-01T00:07:24;6.10;;;3.95;;
17886;SDS011;9069;52.044;7.472;2022-08-01T00:09:51;8.68;;;4.15;;
17886;SDS011;9069;52.044;7.472;2022-08-01T00:12:18;5.72;;;4.10;;
17886;SDS011;9069;52.044;7.472;2022-08-01T00:14:44;5.70;;;4.30;;
17886;SDS011;9069;52.044;7.472;2022-08-01T00:17:11;6.45;;;3.92;;
17886;SDS011;9069;52.044;7.472;2022-08-01T00:19:38;5.32;;;4.03;;
17886;SDS011;9069;52.044;7.472;2022-08-01T00:22:05;6.35;;;4.35;;
17886;SDS011;9069;52.044;7.472;2022-08-01T00:24:32;9.10;;;4.85;;
17886;SDS011;9069;52.044;7.472;2022-08-01T00:26:59;7.53;;;4.47;;
17886;SDS011;9069;52.044;7.472;2022-08-01T00:29:26;7.18;;;3.97;;
17886;SDS011;9069;52.044;7.472;2022-08-01T00:32:13;5.55;;;4.47;;
17886;SDS011;9069;52.044;7.472;2022-08-01T00:34:39;7.57;;;4.50;;
17886;SDS011;9069;52.044;7.472;2022-08-01T00:37:06;8.30;;;4.57;;
17886;SDS011;9069;52.044;7.472;2022-08-01T00:39:33;7.25;;;4.70;;
17886;SDS011;9069;52.044;7.472;2022-08-01T00:42:00;7.07;;;4.88;;
17886;SDS011;9069;52.044;7.472;2022-08-01T00:44:33;6.28;;;4.43;;
17886;SDS011;9069;52.044;7.472;2022-08-01T00:47:01;6.03;;;4.18;;
17886;SDS011;9069;52.044;7.472;2022-08-01T00:49:28;6.63;;;4.47;;
17886;SDS011;9069;52.044;7.472;2022-08-01T00:51:55;7.60;;;4.72;;
17886;SDS011;9069;52.044;7.472;2022-08-01T00:54:23;5.80;;;4.30;;
17886;SDS011;9069;52.044;7.472;2022-08-01T00:56:51;9.32;;;4.32;;
17886;SDS011;9069;52.044;7.472;2022-08-01T00:59:19;7.13;;;5.05;;
17886;SDS011;9069;52.044;7.472;2022-08-01T01:01:48;7.03;;;4.35;;
17886;SDS011;9069;52.044;7.472;2022-08-01T01:04:17;6.82;;;4.13;;
17886;SDS011;9069;52.044;7.472;2022-08-01T01:17:28;9.05;;;4.20;;
17886;SDS011;9069;52.044;7.472;2022-08-01T01:20:17;5.43;;;3.83;;
17886;SDS011;9069;52.044;7.472;2022-08-01T01:22:46;5.43;;;3.88;;
17886;SDS011;9069;52.044;7.472;2022-08-01T01:28:20;7.00;;;3.88;;
17886;SDS011;9069;52.044;7.472;2022-08-01T01:31:02;5.97;;;4.00;;
17886;SDS011;9069;52.044;7.472;2022-08-01T01:33:32;5.13;;;3.70;;
17886;SDS011;9069;52.044;7.472;2022-08-01T01:36:12;5.25;;;3.40;;
17886;SDS011;9069;52.044;7.472;2022-08-01T01:38:41;5.90;;;3.53;;
17886;SDS011;9069;52.044;7.472;2022-08-01T01:41:11;6.22;;;3.85;;
17886;SDS011;9069;52.044;7.472;2022-08-01T01:43:38;3.92;;;3.17;;
17886;SDS011;9069;52.044;7.472;2022-08-01T01:46:06;6.50;;;3.55;;
17886;SDS011;9069;52.044;7.472;2022-08-01T01:48:35;5.45;;;3.90;;
17886;SDS011;9069;52.044;7.472;2022-08-01T01:51:03;5.97;;;3.95;;
17886;SDS011;9069;52.044;7.472;2022-08-01T01:53:32;6.50;;;4.57;;
17886;SDS011;9069;52.044;7.472;2022-08-01T01:56:01;5.57;;;3.92;;
17886;SDS011;9069;52.044;7.472;2022-08-01T01:58:29;5.65;;;3.80;;
17886;SDS011;9069;52.044;7.472;2022-08-01T02:00:59;4.97;;;4.10;;
17886;SDS011;9069;52.044;7.472;2022-08-01T02:03:29;5.75;;;4.38;;
17886;SDS011;9069;52.044;7.472;2022-08-01T02:05:57;6.10;;;4.18;;
17886;SDS011;9069;52.044;7.472;2022-08-01T02:08:26;6.45;;;4.43;;
17886;SDS011;9069;52.044;7.472;2022-08-01T02:10:58;6.80;;;4.38;;
17886;SDS011;9069;52.044;7.472;2022-08-01T02:13:58;7.32;;;4.53;;
17886;SDS011;9069;52.044;7.472;2022-08-01T02:16:34;5.55;;;4.18;;
17886;SDS011;9069;52.044;7.472;2022-08-01T02:19:02;7.82;;;4.95;;
17886;SDS011;9069;52.044;7.472;2022-08-01T02:21:30;7.10;;;4.57;;
17886;SDS011;9069;52.044;7.472;2022-08-01T02:24:19;7.60;;;4.68;;
17886;SDS011;9069;52.044;7.472;2022-08-01T02:27:10;8.25;;;3.53;;
17886;SDS011;9069;52.044;7.472;2022-08-01T02:29:45;15.05;;;4.22;;
17886;SDS011;9069;52.044;7.472;2022-08-01T02:32:17;5.85;;;4.47;;
17886;SDS011;9069;52.044;7.472;2022-08-01T02:34:49;5.00;;;3.47;;
17886;SDS011;9069;52.044;7.472;2022-08-01T02:37:18;6.97;;;4.18;;
17886;SDS011;9069;52.044;7.472;2022-08-01T02:39:47;6.28;;;3.78;;
17886;SDS011;9069;52.044;7.472;2022-08-01T02:42:16;5.10;;;3.33;;
17886;SDS011;9069;52.044;7.472;2022-08-01T02:44:45;8.02;;;3.65;;
17886;SDS011;9069;52.044;7.472;2022-08-01T02:47:13;6.55;;;4.07;;
17886;SDS011;9069;52.044;7.472;2022-08-01T02:49:42;4.93;;;3.17;;
17886;SDS011;9069;52.044;7.472;2022-08-01T02:52:19;4.90;;;3.05;;
17886;SDS011;9069;52.044;7.472;2022-08-01T02:54:50;4.13;;;3.28;;
17886;SDS011;9069;52.044;7.472;2022-08-01T02:57:19;7.07;;;4.10;;
17886;SDS011;9069;52.044;7.472;2022-08-01T02:59:47;5.20;;;3.30;;
17886;SDS011;9069;52.044;7.472;2022-08-01T03:02:16;6.07;;;3.10;;
17886;SDS011;9069;52.044;7.472;2022-08-01T03:04:44;9.98;;;3.95;;
17886;SDS011;9069;52.044;7.472;2022-08-01T03:07:13;6.20;;;3.85;;
17886;SDS011;9069;52.044;7.472;2022-08-01T03:09:42;5.30;;;4.15;;
17886;SDS011;9069;52.044;7.472;2022-08-01T03:12:13;5.60;;;3.70;;
17886;SDS011;9069;52.044;7.472;2022-08-01T03:14:43;7.15;;;4.32;;
17886;SDS011;9069;52.044;7.472;2022-08-01T03:17:15;5.97;;;4.07;;
17886;SDS011;9069;52.044;7.472;2022-08-01T03:19:44;8.55;;;4.13;;
17886;SDS011;9069;52.044;7.472;2022-08-01T03:22:12;4.95;;;4.05;;
17886;SDS011;9069;52.044;7.472;2022-08-01T03:24:41;5.15;;;3.67;;
17886;SDS011;9069;52.044;7.472;2022-08-01T03:27:10;11.65;;;4.50;;
17886;SDS011;9069;52.044;7.472;2022-08-01T03:29:38;5.47;;;3.67;;
17886;SDS011;9069;52.044;7.472;2022-08-01T03:32:07;5.07;;;3.80;;
17886;SDS011;9069;52.044;7.472;2022-08-01T03:34:36;5.65;;;3.22;;
17886;SDS011;9069;52.044;7.472;2022-08-01T03:37:23;6.03;;;4.25;;
17886;SDS011;9069;52.044;7.472;2022-08-01T03:39:54;4.70;;;3.13;;
17886;SDS011;9069;52.044;7.472;2022-08-01T03:42:31;6.22;;;3.25;;
17886;SDS011;9069;52.044;7.472;2022-08-01T03:45:07;4.43;;;3.25;;
17886;SDS011;9069;52.044;7.472;2022-08-01T03:47:38;5.07;;;3.55;;
17886;SDS011;9069;52.044;7.472;2022-08-01T03:50:10;5.93;;;3.20;;
17886;SDS011;9069;52.044;7.472;2022-08-01T03:52:39;6.30;;;3.05;;
17886;SDS011;9069;52.044;7.472;2022-08-01T03:55:09;4.22;;;2.67;;
17886;SDS011;9069;52.044;7.472;2022-08-01T03:57:37;4.10;;;2.50;;
17886;SDS011;9069;52.044;7.472;2022-08-01T04:00:05;3.45;;;2.70;;
17886;SDS011;9069;52.044;7.472;2022-08-01T04:02:37;4.22;;;2.70;;
17886;SDS011;9069;52.044;7.472;2022-08-01T04:05:04;4.68;;;2.40;;
17886;SDS011;9069;52.044;7.472;2022-08-01T04:07:33;3.75;;;2.75;;
17886;SDS011;9069;52.044;7.472;2022-08-01T04:10:03;4.13;;;2.47;;
17886;SDS011;9069;52.044;7.472;2022-08-01T04:12:31;6.32;;;2.42;;
17886;SDS011;9069;52.044;7.472;2022-08-01T04:14:58;4.22;;;2.08;;
17886;SDS011;9069;52.044;7.472;2022-08-01T04:17:25;3.83;;;1.85;;
17886;SDS011;9069;52.044;7.472;2022-08-01T04:19:52;4.18;;;2.30;;
17886;SDS011;9069;52.044;7.472;2022-08-01T04:22:18;2.83;;;2.15;;
17886;SDS011;9069;52.044;7.472;2022-08-01T04:24:49;2.42;;;2.03;;
17886;SDS011;9069;52.044;7.472;2022-08-01T04:27:29;2.75;;;2.17;;
17886;SDS011;9069;52.044;7.472;2022-08-01T04:30:22;3.08;;;2.20;;
17886;SDS011;9069;52.044;7.472;2022-08-01T04:32:54;3.13;;;2.10;;
17886;SDS011;9069;52.044;7.472;2022-08-01T04:35:23;2.67;;;2.28;;
17886;SDS011;9069;52.044;7.472;2022-08-01T04:38:13;2.38;;;1.90;;
17886;SDS011;9069;52.044;7.472;2022-08-01T04:40:44;3.55;;;2.33;;
17886;SDS011;9069;52.044;7.472;2022-08-01T04:43:11;3.10;;;2.80;;
17886;SDS011;9069;52.044;7.472;2022-08-01T04:45:40;3.38;;;2.63;;
17886;SDS011;9069;52.044;7.472;2022-08-01T04:48:09;3.30;;;2.65;;
17886;SDS011;9069;52.044;7.472;2022-08-01T04:50:37;3.65;;;3.00;;
17886;SDS011;9069;52.044;7.472;2022-08-01T04:53:03;2.58;;;2.10;;
17886;SDS011;9069;52.044;7.472;2022-08-01T04:55:31;3.10;;;2.63;;
17886;SDS011;9069;52.044;7.472;2022-08-01T04:57:57;4.18;;;2.67;;
17886;SDS011;9069;52.044;7.472;2022-08-01T05:00:25;4.18;;;2.88;;
17886;SDS011;9069;52.044;7.472;2022-08-01T05:02:52;3.22;;;2.92;;
17886;SDS011;9069;52.044;7.472;2022-08-01T05:05:19;3.00;;;2.70;;
17886;SDS011;9069;52.044;7.472;2022-08-01T05:07:46;3.20;;;2.75;;
17886;SDS011;9069;52.044;7.472;2022-08-01T05:10:13;5.05;;;2.60;;
17886;SDS011;9069;52.044;7.472;2022-08-01T05:12:40;5.90;;;2.83;;
17886;SDS011;9069;52.044;7.472;2022-08-01T05:15:07;3.90;;;2.97;;
17886;SDS011;9069;52.044;7.472;2022-08-01T05:17:40;5.00;;;3.00;;
17886;SDS011;9069;52.044;7.472;2022-08-01T05:20:10;3.85;;;2.70;;
17886;SDS011;9069;52.044;7.472;2022-08-01T05:22:37;3.72;;;2.72;;
17886;SDS011;9069;52.044;7.472;2022-08-01T05:25:05;3.08;;;2.63;;
17886;SDS011;9069;52.044;7.472;2022-08-01T05:27:32;4.07;;;3.08;;
17886;SDS011;9069;52.044;7.472;2022-08-01T05:30:04;3.60;;;2.92;;
17886;SDS011;9069;52.044;7.472;2022-08-01T05:32:32;3.30;;;3.00;;
17886;SDS011;9069;52.044;7.472;2022-08-01T05:34:58;3.53;;;2.45;;
17886;SDS011;9069;52.044;7.472;2022-08-01T05:37:25;3.42;;;2.97;;
17886;SDS011;9069;52.044;7.472;2022-08-01T05:39:52;3.83;;;2.88;;
17886;SDS011;9069;52.044;7.472;2022-08-01T05:42:19;3.85;;;2.70;;
17886;SDS011;9069;52.044;7.472;2022-08-01T05:44:45;3.47;;;2.92;;
17886;SDS011;9069;52.044;7.472;2022-08-01T05:47:13;7.00;;;3.08;;
17886;SDS011;9069;52.044;7.472;2022-08-01T05:49:40;2.65;;;2.17;;
17886;SDS011;9069;52.044;7.472;2022-08-01T05:52:07;2.78;;;2.15;;
17886;SDS011;9069;52.044;7.472;2022-08-01T05:54:34;2.80;;;1.60;;
17886;SDS011;9069;52.044;7.472;2022-08-01T05:57:01;2.00;;;1.50;;
17886;SDS011;9069;52.044;7.472;2022-08-01T05:59:28;1.33;;;1.23;;
17886;SDS011;9069;52.044;7.472;2022-08-01T06:01:55;1.50;;;1.33;;
17886;SDS011;9069;52.044;7.472;2022-08-01T06:04:22;1.40;;;1.30;;
17886;SDS011;9069;52.044;7.472;2022-08-01T06:06:49;1.88;;;1.60;;
17886;SDS011;9069;52.044;7.472;2022-08-01T06:09:16;2.10;;;1.67;;
17886;SDS011;9069;52.044;7.472;2022-08-01T06:11:43;2.15;;;1.90;;
17886;SDS011;9069;52.044;7.472;2022-08-01T06:14:09;1.85;;;1.73;;
17886;SDS011;9069;52.044;7.472;2022-08-01T06:16:36;1.88;;;1.73;;
17886;SDS011;9069;52.044;7.472;2022-08-01T06:19:03;2.67;;;1.80;;
17886;SDS011;9069;52.044;7.472;2022-08-01T06:21:30;1.63;;;1.52;;
17886;SDS011;9069;52.044;7.472;2022-08-01T06:23:56;2.78;;;1.77;;
17886;SDS011;9069;52.044;7.472;2022-08-01T06:26:23;2.05;;;1.85;;
17886;SDS011;9069;52.044;7.472;2022-08-01T06:28:50;3.00;;;2.13;;
17886;SDS011;9069;52.044;7.472;2022-08-01T06:31:16;2.30;;;2.10;;
17886;SDS011;9069;52.044;7.472;2022-08-01T06:33:43;2.80;;;2.40;;
17886;SDS011;9069;52.044;7.472;2022-08-01T06:36:10;4.47;;;2.50;;
17886;SDS011;9069;52.044;7.472;2022-08-01T06:38:37;5.05;;;2.22;;
17886;SDS011;9069;52.044;7.472;2022-08-01T06:41:04;4.15;;;2.90;;
17886;SDS011;9069;52.044;7.472;2022-08-01T06:43:30;3.95;;;2.72;;
17886;SDS011;9069;52.044;7.472;2022-08-01T06:45:57;3.03;;;2.50;;
17886;SDS011;9069;52.044;7.472;2022-08-01T06:48:24;4.68;;;2.75;;
17886;SDS011;9069;52.044;7.472;2022-08-01T06:50:50;2.72;;;2.45;;
17886;SDS011;9069;52.044;7.472;2022-08-01T06:53:37;5.57;;;2.95;;
17886;SDS011;9069;52.044;7.472;2022-08-01T06:56:04;3.17;;;2.67;;
17886;SDS011;9069;52.044;7.472;2022-08-01T06:58:32;3.05;;;2.65;;
17886;SDS011;9069;52.044;7.472;2022-08-01T07:01:00;3.17;;;2.83;;
17886;SDS011;9069;52.044;7.472;2022-08-01T07:03:30;2.92;;;2.63;;
17886;SDS011;9069;52.044;7.472;2022-08-01T07:06:17;2.92;;;2.70;;
17886;SDS011;9069;52.044;7.472;2022-08-01T07:08:44;2.25;;;1.50;;
17886;SDS011;9069;52.044;7.472;2022-08-01T07:11:10;2.38;;;1.83;;
17886;SDS011;9069;52.044;7.472;2022-08-01T07:13:37;2.80;;;2.30;;
17886;SDS011;9069;52.044;7.472;2022-08-01T07:16:11;2.28;;;1.90;;
17886;SDS011;9069;52.044;7.472;2022-08-01T07:18:39;1.98;;;1.88;;
17886;SDS011;9069;52.044;7.472;2022-08-01T07:21:06;2.08;;;1.90;;
17886;SDS011;9069;52.044;7.472;2022-08-01T07:23:53;2.33;;;1.60;;
17886;SDS011;9069;52.044;7.472;2022-08-01T07:26:21;2.00;;;1.88;;
17886;SDS011;9069;52.044;7.472;2022-08-01T07:28:47;2.67;;;1.83;;
17886;SDS011;9069;52.044;7.472;2022-08-01T07:31:14;2.33;;;2.13;;
17886;SDS011;9069;52.044;7.472;2022-08-01T07:33:41;3.58;;;2.15;;
17886;SDS011;9069;52.044;7.472;2022-08-01T07:36:15;2.03;;;1.75;;
17886;SDS011;9069;52.044;7.472;2022-08-01T07:38:45;2.35;;;2.13;;
17886;SDS011;9069;52.044;7.472;2022-08-01T07:41:12;2.72;;;2.30;;
17886;SDS011;9069;52.044;7.472;2022-08-01T07:43:39;1.95;;;1.80;;
17886;SDS011;9069;52.044;7.472;2022-08-01T07:46:10;1.90;;;1.80;;
17886;SDS011;9069;52.044;7.472;2022-08-01T07:48:37;2.40;;;2.20;;
17886;SDS011;9069;52.044;7.472;2022-08-01T07:51:04;2.50;;;2.25;;
17886;SDS011;9069;52.044;7.472;2022-08-01T07:53:30;2.20;;;1.80;;
17886;SDS011;9069;52.044;7.472;2022-08-01T07:55:57;1.73;;;1.63;;
17886;SDS011;9069;52.044;7.472;2022-08-01T07:58:25;1.92;;;1.80;;
17886;SDS011;9069;52.044;7.472;2022-08-01T08:00:51;3.85;;;1.65;;
17886;SDS011;9069;52.044;7.472;2022-08-01T08:03:18;1.67;;;1.58;;
17886;SDS011;9069;52.044;7.472;2022-08-01T08:05:45;2.78;;;1.85;;
17886;SDS011;9069;52.044;7.472;2022-08-01T08:08:25;4.22;;;2.10;;
17886;SDS011;9069;52.044;7.472;2022-08-01T08:10:52;2.10;;;1.83;;
17886;SDS011;9069;52.044;7.472;2022-08-01T08:13:18;2.90;;;2.30;;
17886;SDS011;9069;52.044;7.472;2022-08-01T08:15:46;2.88;;;2.22;;
17886;SDS011;9069;52.044;7.472;2022-08-01T08:18:14;3.88;;;2.35;;
17886;SDS011;9069;52.044;7.472;2022-08-01T08:20:41;3.40;;;3.10;;
17886;SDS011;9069;52.044;7.472;2022-08-01T08:23:08;3.65;;;2.72;;
17886;SDS011;9069;52.044;7.472;2022-08-01T08:26:08;3.30;;;2.58;;
17886;SDS011;9069;52.044;7.472;2022-08-01T08:28:35;3.03;;;2.70;;
17886;SDS011;9069;52.044;7.472;2022-08-01T08:31:02;4.15;;;2.53;;
17886;SDS011;9069;52.044;7.472;2022-08-01T08:33:29;2.88;;;2.33;;
17886;SDS011;9069;52.044;7.472;2022-08-01T08:35:56;3.17;;;2.50;;
17886;SDS011;9069;52.044;7.472;2022-08-01T08:38:23;2.20;;;2.00;;
17886;SDS011;9069;52.044;7.472;2022-08-01T08:40:55;2.38;;;2.10;;
17886;SDS011;9069;52.044;7.472;2022-08-01T08:43:24;2.47;;;2.22;;
17886;SDS011;9069;52.044;7.472;2022-08-01T08:45:52;2.63;;;2.28;;
17886;SDS011;9069;52.044;7.472;2022-08-01T08:48:25;3.17;;;2.03;;
17886;SDS011;9069;52.044;7.472;2022-08-01T08:50:53;4.68;;;2.08;;
17886;SDS011;9069;52.044;7.472;2022-08-01T08:53:21;2.33;;;1.90;;
17886;SDS011;9069;52.044;7.472;2022-08-01T08:55:48;1.98;;;1.75;;
17886;SDS011;9069;52.044;7.472;2022-08-01T08:58:22;3.42;;;1.63;;
17886;SDS011;9069;52.044;7.472;2022-08-01T09:00:57;2.38;;;1.48;;
17886;SDS011;9069;52.044;7.472;2022-08-01T09:03:24;1.73;;;1.30;;
17886;SDS011;9069;52.044;7.472;2022-08-01T09:05:51;1.95;;;1.38;;
17886;SDS011;9069;52.044;7.472;2022-08-01T09:08:17;2.95;;;1.60;;
17886;SDS011;9069;52.044;7.472;2022-08-01T09:10:44;2.25;;;1.50;;
17886;SDS011;9069;52.044;7.472;2022-08-01T09:13:12;2.00;;;1.10;;
17886;SDS011;9069;52.044;7.472;2022-08-01T09:18:30;3.20;;;1.30;;
17886;SDS011;9069;52.044;7.472;2022-08-01T09:21:10;1.80;;;1.10;;
17886;SDS011;9069;52.044;7.472;2022-08-01T09:23:44;2.95;;;1.55;;
17886;SDS011;9069;52.044;7.472;2022-08-01T09:26:33;2.55;;;1.77;;
17886;SDS011;9069;52.044;7.472;2022-08-01T09:29:03;3.97;;;1.65;;
17886;SDS011;9069;52.044;7.472;2022-08-01T09:31:39;5.32;;;1.80;;
17886;SDS011;9069;52.044;7.472;2022-08-01T09:34:13;3.45;;;1.83;;
17886;SDS011;9069;52.044;7.472;2022-08-01T09:39:23;2.25;;;1.80;;
17886;SDS011;9069;52.044;7.472;2022-08-01T09:41:55;3.83;;;1.80;;
17886;SDS011;9069;52.044;7.472;2022-08-01T09:44:37;2.95;;;1.65;;
17886;SDS011;9069;52.044;7.472;2022-08-01T09:47:19;4.15;;;1.40;;
17886;SDS011;9069;52.044;7.472;2022-08-01T09:49:54;4.07;;;2.10;;
17886;SDS011;9069;52.044;7.472;2022-08-01T09:52:25;1.80;;;1.70;;
17886;SDS011;9069;52.044;7.472;2022-08-01T09:54:55;2.67;;;1.83;;
17886;SDS011;9069;52.044;7.472;2022-08-01T09:57:23;3.35;;;2.05;;
17886;SDS011;9069;52.044;7.472;2022-08-01T09:59:51;3.55;;;1.90;;
17886;SDS011;9069;52.044;7.472;2022-08-01T10:02:30;3.33;;;2.33;;
17886;SDS011;9069;52.044;7.472;2022-08-01T10:04:57;4.28;;;2.30;;
17886;SDS011;9069;52.044;7.472;2022-08-01T10:10:24;4.55;;;3.00;;
17886;SDS011;9069;52.044;7.472;2022-08-01T10:12:57;5.40;;;2.90;;
17886;SDS011;9069;52.044;7.472;2022-08-01T10:15:25;5.40;;;2.53;;
17886;SDS011;9069;52.044;7.472;2022-08-01T10:18:04;3.50;;;2.75;;
17886;SDS011;9069;52.044;7.472;2022-08-01T10:20:42;7.82;;;3.70;;
17886;SDS011;9069;52.044;7.472;2022-08-01T10:23:09;5.78;;;3.20;;
17886;SDS011;9069;52.044;7.472;2022-08-01T10:25:39;6.40;;;3.47;;
17886;SDS011;9069;52.044;7.472;2022-08-01T10:28:16;4.35;;;3.25;;
17886;SDS011;9069;52.044;7.472;2022-08-01T10:30:49;8.07;;;3.72;;
17886;SDS011;9069;52.044;7.472;2022-08-01T10:33:18;5.70;;;4.07;;
17886;SDS011;9069;52.044;7.472;2022-08-01T10:36:08;7.95;;;4.57;;
17886;SDS011;9069;52.044;7.472;2022-08-01T10:38:36;7.60;;;5.57;;
17886;SDS011;9069;52.044;7.472;2022-08-01T10:41:03;7.80;;;5.20;;
17886;SDS011;9069;52.044;7.472;2022-08-01T10:43:33;10.70;;;5.90;;
17886;SDS011;9069;52.044;7.472;2022-08-01T10:46:01;8.57;;;5.07;;
17886;SDS011;9069;52.044;7.472;2022-08-01T10:48:39;7.35;;;6.03;;
17886;SDS011;9069;52.044;7.472;2022-08-01T10:51:17;10.43;;;5.57;;
17886;SDS011;9069;52.044;7.472;2022-08-01T10:53:47;8.05;;;5.68;;
17886;SDS011;9069;52.044;7.472;2022-08-01T10:56:20;8.55;;;5.57;;
17886;SDS011;9069;52.044;7.472;2022-08-01T10:59:00;8.68;;;6.03;;
17886;SDS011;9069;52.044;7.472;2022-08-01T11:01:36;8.52;;;5.82;;
17886;SDS011;9069;52.044;7.472;2022-08-01T11:04:14;7.85;;;5.45;;
17886;SDS011;9069;52.044;7.472;2022-08-01T11:09:23;8.80;;;5.47;;
17886;SDS011;9069;52.044;7.472;2022-08-01T11:12:04;6.88;;;5.03;;
17886;SDS011;9069;52.044;7.472;2022-08-01T11:17:44;5.18;;;4.10;;
17886;SDS011;9069;52.044;7.472;2022-08-01T11:20:24;9.25;;;4.43;;
17886;SDS011;9069;52.044;7.472;2022-08-01T11:28:23;4.68;;;3.05;;
17886;SDS011;9069;52.044;7.472;2022-08-01T11:36:17;7.38;;;3.90;;
17886;SDS011;9069;52.044;7.472;2022-08-01T11:41:39;6.47;;;3.08;;
17886;SDS011;9069;52.044;7.472;2022-08-01T11:54:47;7.57;;;3.55;;
17886;SDS011;9069;52.044;7.472;2022-08-01T11:57:18;3.20;;;2.90;;
17886;SDS011;9069;52.044;7.472;2022-08-01T11:59:49;5.38;;;3.05;;
17886;SDS011;9069;52.044;7.472;2022-08-01T12:02:37;6.85;;;3.13;;
17886;SDS011;9069;52.044;7.472;2022-08-01T12:05:05;6.28;;;3.30;;
17886;SDS011;9069;52.044;7.472;2022-08-01T12:07:39;3.55;;;2.72;;
17886;SDS011;9069;52.044;7.472;2022-08-01T12:12:45;5.15;;;2.28;;
17886;SDS011;9069;52.044;7.472;2022-08-01T12:15:20;5.38;;;2.92;;
17886;SDS011;9069;52.044;7.472;2022-08-01T12:17:51;5.30;;;2.65;;
17886;SDS011;9069;52.044;7.472;2022-08-01T12:20:32;5.07;;;2.80;;
17886;SDS011;9069;52.044;7.472;2022-08-01T12:23:00;5.93;;;2.22;;
17886;SDS011;9069;52.044;7.472;2022-08-01T12:25:29;5.82;;;2.45;;
17886;SDS011;9069;52.044;7.472;2022-08-01T12:27:58;6.45;;;2.65;;
17886;SDS011;9069;52.044;7.472;2022-08-01T12:30:26;3.15;;;2.38;;
17886;SDS011;9069;52.044;7.472;2022-08-01T12:32:54;3.78;;;2.72;;
17886;SDS011;9069;52.044;7.472;2022-08-01T12:35:22;2.85;;;2.05;;
17886;SDS011;9069;52.044;7.472;2022-08-01T12:37:51;3.17;;;2.25;;
17886;SDS011;9069;52.044;7.472;2022-08-01T12:40:27;3.83;;;2.05;;
17886;SDS011;9069;52.044;7.472;2022-08-01T12:42:59;3.65;;;2.05;;
17886;SDS011;9069;52.044;7.472;2022-08-01T12:45:38;2.78;;;1.88;;
17886;SDS011;9069;52.044;7.472;2022-08-01T12:48:22;2.67;;;1.80;;
17886;SDS011;9069;52.044;7.472;2022-08-01T12:50:50;4.85;;;2.08;;
17886;SDS011;9069;52.044;7.472;2022-08-01T12:53:18;2.13;;;1.85;;
17886;SDS011;9069;52.044;7.472;2022-08-01T12:55:53;5.18;;;2.00;;
17886;SDS011;9069;52.044;7.472;2022-08-01T12:58:31;3.70;;;2.05;;
17886;SDS011;9069;52.044;7.472;2022-08-01T13:01:03;5.05;;;2.20;;
17886;SDS011;9069;52.044;7.472;2022-08-01T13:03:32;8.60;;;2.65;;
17886;SDS011;9069;52.044;7.472;2022-08-01T13:05:59;3.17;;;1.70;;
17886;SDS011;9069;52.044;7.472;2022-08-01T13:11:08;3.65;;;1.60;;
17886;SDS011;9069;52.044;7.472;2022-08-01T13:13:44;4.10;;;2.05;;
17886;SDS011;9069;52.044;7.472;2022-08-01T13:16:21;3.35;;;1.90;;
17886;SDS011;9069;52.044;7.472;2022-08-01T13:19:12;1.95;;;1.50;;
17886;SDS011;9069;52.044;7.472;2022-08-01T13:21:39;2.78;;;1.40;;
17886;SDS011;9069;52.044;7.472;2022-08-01T13:24:24;3.78;;;1.35;;
17886;SDS011;9069;52.044;7.472;2022-08-01T13:26:55;5.07;;;1.70;;
17886;SDS011;9069;52.044;7.472;2022-08-01T13:29:34;4.15;;;1.60;;
17886;SDS011;9069;52.044;7.472;2022-08-01T13:32:17;4.70;;;1.70;;
17886;SDS011;9069;52.044;7.472;2022-08-01T13:35:01;3.67;;;1.60;;
17886;SDS011;9069;52.044;7.472;2022-08-01T13:37:35;6.28;;;1.75;;
17886;SDS011;9069;52.044;7.472;2022-08-01T13:40:04;5.43;;;1.73;;
17886;SDS011;9069;52.044;7.472;2022-08-01T13:42:32;2.85;;;1.40;;
17886;SDS011;9069;52.044;7.472;2022-08-01T13:44:59;5.10;;;1.55;;
17886;SDS011;9069;52.044;7.472;2022-08-01T13:47:28;6.38;;;1.88;;
17886;SDS011;9069;52.044;7.472;2022-08-01T13:49:58;3.13;;;1.30;;
17886;SDS011;9069;52.044;7.472;2022-08-01T13:52:28;3.35;;;1.40;;
17886;SDS011;9069;52.044;7.472;2022-08-01T13:54:54;6.10;;;1.40;;
17886;SDS011;9069;52.044;7.472;2022-08-01T13:57:21;2.70;;;1.35;;
17886;SDS011;9069;52.044;7.472;2022-08-01T13:59:48;6.30;;;1.35;;
17886;SDS011;9069;52.044;7.472;2022-08-01T14:02:15;4.82;;;1.60;;
17886;SDS011;9069;52.044;7.472;2022-08-01T14:04:41;3.60;;;1.25;;
17886;SDS011;9069;52.044;7.472;2022-08-01T14:07:08;4.50;;;1.67;;
17886;SDS011;9069;52.044;7.472;2022-08-01T14:09:40;3.95;;;1.40;;
17886;SDS011;9069;52.044;7.472;2022-08-01T14:12:28;4.88;;;1.20;;
17886;SDS011;9069;52.044;7.472;2022-08-01T14:14:54;4.82;;;1.48;;
17886;SDS011;9069;52.044;7.472;2022-08-01T14:17:22;3.20;;;1.10;;
17886;SDS011;9069;52.044;7.472;2022-08-01T14:19:49;3.22;;;1.33;;
17886;SDS011;9069;52.044;7.472;2022-08-01T14:22:16;3.53;;;1.30;;
17886;SDS011;9069;52.044;7.472;2022-08-01T14:24:42;5.05;;;1.90;;
17886;SDS011;9069;52.044;7.472;2022-08-01T14:27:09;5.22;;;1.33;;
17886;SDS011;9069;52.044;7.472;2022-08-01T14:29:36;5.20;;;1.38;;
17886;SDS011;9069;52.044;7.472;2022-08-01T14:32:23;5.30;;;1.60;;
17886;SDS011;9069;52.044;7.472;2022-08-01T14:34:54;5.15;;;1.60;;
17886;SDS011;9069;52.044;7.472;2022-08-01T14:37:22;2.95;;;1.25;;
17886;SDS011;9069;52.044;7.472;2022-08-01T14:39:57;6.35;;;1.70;;
17886;SDS011;9069;52.044;7.472;2022-08-01T14:42:25;7.45;;;1.55;;
17886;SDS011;9069;52.044;7.472;2022-08-01T14:44:52;7.05;;;1.40;;
17886;SDS011;9069;52.044;7.472;2022-08-01T14:47:19;5.90;;;1.40;;
17886;SDS011;9069;52.044;7.472;2022-08-01T14:49:47;4.28;;;1.55;;
17886;SDS011;9069;52.044;7.472;2022-08-01T14:52:14;2.85;;;1.38;;
17886;SDS011;9069;52.044;7.472;2022-08-01T14:54:41;2.75;;;1.15;;
17886;SDS011;9069;52.044;7.472;2022-08-01T14:57:08;4.50;;;1.42;;
17886;SDS011;9069;52.044;7.472;2022-08-01T14:59:35;7.10;;;1.50;;
17886;SDS011;9069;52.044;7.472;2022-08-01T15:02:02;3.97;;;1.30;;
17886;SDS011;9069;52.044;7.472;2022-08-01T15:04:29;5.25;;;1.17;;
17886;SDS011;9069;52.044;7.472;2022-08-01T15:06:56;2.15;;;1.38;;
17886;SDS011;9069;52.044;7.472;2022-08-01T15:09:23;3.08;;;1.20;;
17886;SDS011;9069;52.044;7.472;2022-08-01T15:11:50;4.95;;;1.10;;
17886;SDS011;9069;52.044;7.472;2022-08-01T15:14:16;3.17;;;1.10;;
17886;SDS011;9069;52.044;7.472;2022-08-01T15:17:02;3.42;;;1.35;;
17886;SDS011;9069;52.044;7.472;2022-08-01T15:19:29;6.55;;;1.20;;
17886;SDS011;9069;52.044;7.472;2022-08-01T15:21:55;3.15;;;1.00;;
17886;SDS011;9069;52.044;7.472;2022-08-01T15:24:24;2.35;;;1.13;;
17886;SDS011;9069;52.044;7.472;2022-08-01T15:26:51;5.70;;;1.40;;
17886;SDS011;9069;52.044;7.472;2022-08-01T15:29:18;3.90;;;1.88;;
17886;SDS011;9069;52.044;7.472;2022-08-01T15:31:44;7.03;;;1.35;;
17886;SDS011;9069;52.044;7.472;2022-08-01T15:34:11;2.72;;;1.13;;
17886;SDS011;9069;52.044;7.472;2022-08-01T15:36:38;4.13;;;1.45;;
17886;SDS011;9069;52.044;7.472;2022-08-01T15:39:09;5.35;;;1.55;;
17886;SDS011;9069;52.044;7.472;2022-08-01T15:41:36;5.65;;;1.38;;
17886;SDS011;9069;52.044;7.472;2022-08-01T15:44:03;3.22;;;1.20;;
17886;SDS011;9069;52.044;7.472;2022-08-01T15:46:30;5.57;;;1.83;;
17886;SDS011;9069;52.044;7.472;2022-08-01T15:48:57;4.03;;;1.30;;
17886;SDS011;9069;52.044;7.472;2022-08-01T15:51:27;5.97;;;1.15;;
17886;SDS011;9069;52.044;7.472;2022-08-01T15:53:54;3.95;;;1.20;;
17886;SDS011;9069;52.044;7.472;2022-08-01T15:56:21;3.88;;;1.58;;
17886;SDS011;9069;52.044;7.472;2022-08-01T15:58:47;4.07;;;0.98;;
17886;SDS011;9069;52.044;7.472;2022-08-01T16:01:14;4.18;;;1.05;;
17886;SDS011;9069;52.044;7.472;2022-08-01T16:03:41;5.18;;;1.38;;
17886;SDS011;9069;52.044;7.472;2022-08-01T16:06:07;4.03;;;1.65;;
17886;SDS011;9069;52.044;7.472;2022-08-01T16:08:34;2.70;;;1.33;;
17886;SDS011;9069;52.044;7.472;2022-08-01T16:11:01;2.65;;;1.00;;
17886;SDS011;9069;52.044;7.472;2022-08-01T16:13:28;3.30;;;1.20;;
17886;SDS011;9069;52.044;7.472;2022-08-01T16:15:54;3.20;;;1.30;;